Time;durP1;ratioP1;P1;durP2;ratioP2;P2;SDS_P1;SDS_P2;PMS_P1;PMS_P2;Temp;Humidity;BMP_temperature;BMP_pressure;BME280_temperature;BME280_humidity;BME280_pressure;Samples;Min_cycle;Max_cycle;Signal;HPM_P1;HPM_P2
2022/12/22 03:26:50;;;;;;;3.57;1.60;;;;;;;;;;5065585;27;83423;-53
2022/12/22 03:29:18;;;;;;;2.33;1.73;;;;;;;;;;5065342;27;82803;-53
2022/12/22 03:31:46;;;;;;;1.30;1.20;;;;;;;;;;5078063;27;83568;-52
2022/12/22 03:34:16;;;;;;;1.80;1.50;;;;;;;;;;5068305;27;82023;-53
2022/12/22 03:36:44;;;;;;;1.77;1.50;;;;;;;;;;5083549;27;83609;-53
2022/12/22 03:39:13;;;;;;;1.30;1.20;;;;;;;;;;5068026;27;82011;-53
2022/12/22 03:47:13;;;;;;;1.43;1.17;;;;;;;;;;5065443;27;82907;-53
2022/12/22 03:49:43;;;;;;;1.73;1.47;;;;;;;;;;5065371;27;81936;-53
2022/12/22 03:52:11;;;;;;;1.37;1.20;;;;;;;;;;5065133;27;83954;-53
2022/12/22 03:54:39;;;;;;;1.33;1.20;;;;;;;;;;5064616;27;84063;-53
2022/12/22 03:57:08;;;;;;;2.53;1.63;;;;;;;;;;5065113;27;84857;-53
2022/12/22 03:59:36;;;;;;;1.60;1.50;;;;;;;;;;5081522;27;81873;-53
2022/12/22 04:02:04;;;;;;;2.03;1.30;;;;;;;;;;5078902;27;83518;-54
2022/12/22 04:04:33;;;;;;;1.30;1.20;;;;;;;;;;5068739;27;82986;-53
2022/12/22 04:07:02;;;;;;;1.77;1.47;;;;;;;;;;5084504;27;82887;-54
2022/12/22 04:09:31;;;;;;;2.10;1.50;;;;;;;;;;5071673;27;81985;-54
2022/12/22 04:14:53;;;;;;;2.30;1.33;;;;;;;;;;5027605;27;82992;-53
2022/12/22 04:17:22;;;;;;;1.77;1.30;;;;;;;;;;5072073;27;82942;-54
2022/12/22 04:19:50;;;;;;;1.43;1.10;;;;;;;;;;5077959;27;82894;-54
2022/12/22 04:22:20;;;;;;;1.70;1.60;;;;;;;;;;5084253;27;82020;-53
2022/12/22 04:24:48;;;;;;;1.27;1.10;;;;;;;;;;5059676;27;82961;-52
2022/12/22 04:27:16;;;;;;;2.27;1.20;;;;;;;;;;5044291;27;82326;-53
2022/12/22 04:29:44;;;;;;;1.30;1.20;;;;;;;;;;5056434;27;81978;-53
2022/12/22 04:32:13;;;;;;;1.43;1.00;;;;;;;;;;5081800;27;82803;-52
2022/12/22 04:34:41;;;;;;;1.60;1.37;;;;;;;;;;5063020;27;84019;-53
2022/12/22 04:37:09;;;;;;;2.60;1.43;;;;;;;;;;5069344;27;82876;-53
2022/12/22 04:39:46;;;;;;;1.40;1.30;;;;;;;;;;5084714;27;82055;-53
2022/12/22 04:42:14;;;;;;;1.73;1.17;;;;;;;;;;5065722;27;83894;-53
2022/12/22 04:44:43;;;;;;;1.40;1.30;;;;;;;;;;5063125;27;84722;-52
2022/12/22 04:47:11;;;;;;;1.17;1.07;;;;;;;;;;5062337;27;83859;-53
2022/12/22 04:49:39;;;;;;;1.70;1.17;;;;;;;;;;5062877;27;83073;-52
2022/12/22 04:52:08;;;;;;;1.57;1.10;;;;;;;;;;5069757;27;83830;-53
2022/12/22 04:54:36;;;;;;;2.17;1.30;;;;;;;;;;5062519;27;83574;-53
2022/12/22 04:57:06;;;;;;;0.87;0.87;;;;;;;;;;5062668;27;82888;-53
2022/12/22 04:59:34;;;;;;;1.40;1.10;;;;;;;;;;5077051;27;82110;-52
2022/12/22 05:02:02;;;;;;;1.83;1.43;;;;;;;;;;5085120;27;82818;-53
2022/12/22 05:04:31;;;;;;;4.40;1.93;;;;;;;;;;5047551;27;84236;-53
2022/12/22 05:06:59;;;;;;;1.67;1.23;;;;;;;;;;5063963;27;82637;-53
2022/12/22 05:09:27;;;;;;;2.73;1.50;;;;;;;;;;5063991;27;82935;-53
2022/12/22 05:11:56;;;;;;;1.73;1.03;;;;;;;;;;5071813;27;82672;-53
2022/12/22 05:14:25;;;;;;;1.33;1.00;;;;;;;;;;5084029;27;84178;-52
2022/12/22 05:16:54;;;;;;;1.57;1.37;;;;;;;;;;5084418;27;84002;-53
2022/12/22 05:19:22;;;;;;;1.13;1.00;;;;;;;;;;5070032;27;81995;-53
2022/12/22 05:21:57;;;;;;;1.33;1.10;;;;;;;;;;5063215;27;83889;-53
2022/12/22 05:24:26;;;;;;;1.17;1.07;;;;;;;;;;5064698;27;84124;-53
2022/12/22 05:26:54;;;;;;;1.93;1.20;;;;;;;;;;5063795;27;82528;-53
2022/12/22 05:29:22;;;;;;;1.27;1.00;;;;;;;;;;5063288;27;81967;-53
2022/12/22 05:31:52;;;;;;;2.20;1.63;;;;;;;;;;5083448;27;82688;-53
2022/12/22 05:34:20;;;;;;;2.00;1.10;;;;;;;;;;5083034;27;83948;-53
2022/12/22 05:36:48;;;;;;;1.73;1.00;;;;;;;;;;5077504;27;83713;-54
2022/12/22 05:39:18;;;;;;;1.43;1.20;;;;;;;;;;5063164;27;81973;-53
2022/12/22 05:41:46;;;;;;;1.73;1.00;;;;;;;;;;5062988;27;82797;-54
2022/12/22 05:44:14;;;;;;;1.93;1.20;;;;;;;;;;5081385;27;84214;-53
2022/12/22 05:46:43;;;;;;;1.63;0.87;;;;;;;;;;5079240;27;83002;-53
2022/12/22 05:49:12;;;;;;;1.47;1.00;;;;;;;;;;5083692;27;82017;-53
2022/12/22 05:51:41;;;;;;;1.40;0.90;;;;;;;;;;5069520;27;83021;-53
2022/12/22 05:54:10;;;;;;;1.30;1.20;;;;;;;;;;5066554;27;83002;-53
2022/12/22 05:56:38;;;;;;;0.80;0.80;;;;;;;;;;5083398;27;82608;-53
2022/12/22 05:59:06;;;;;;;1.73;1.07;;;;;;;;;;5048762;27;82894;-53
2022/12/22 06:01:34;;;;;;;1.00;0.90;;;;;;;;;;5081584;27;82647;-53
2022/12/22 06:04:03;;;;;;;1.23;1.13;;;;;;;;;;5080381;27;83012;-53
2022/12/22 06:06:33;;;;;;;1.87;1.33;;;;;;;;;;5083093;27;82823;-54
2022/12/22 06:09:01;;;;;;;1.23;1.03;;;;;;;;;;5063498;27;82026;-54
2022/12/22 06:11:29;;;;;;;1.90;1.40;;;;;;;;;;5066970;27;84473;-54
2022/12/22 06:13:58;;;;;;;1.73;1.37;;;;;;;;;;5080556;27;82998;-54
2022/12/22 06:16:26;;;;;;;1.97;0.90;;;;;;;;;;5083712;27;83981;-53
2022/12/22 06:18:54;;;;;;;1.43;1.10;;;;;;;;;;5069899;27;81966;-53
2022/12/22 06:21:23;;;;;;;0.90;0.73;;;;;;;;;;5066629;27;83734;-53
2022/12/22 06:23:53;;;;;;;1.43;1.30;;;;;;;;;;5067887;27;84013;-53
2022/12/22 06:26:22;;;;;;;1.63;1.07;;;;;;;;;;5086725;27;82492;-53
2022/12/22 06:28:50;;;;;;;0.80;0.80;;;;;;;;;;5086779;27;81974;-53
2022/12/22 06:31:18;;;;;;;1.13;1.00;;;;;;;;;;5087243;27;82886;-54
2022/12/22 06:33:47;;;;;;;0.80;0.80;;;;;;;;;;5085226;27;81969;-53
2022/12/22 06:36:15;;;;;;;0.90;0.90;;;;;;;;;;5068019;27;83863;-53
2022/12/22 06:38:43;;;;;;;1.07;0.97;;;;;;;;;;5066755;27;81942;-54
2022/12/22 06:41:13;;;;;;;2.10;1.13;;;;;;;;;;5066114;27;83929;-53
2022/12/22 06:43:40;;;;;;;1.90;1.37;;;;;;;;;;5066316;27;83859;-53
2022/12/22 06:46:09;;;;;;;1.50;0.80;;;;;;;;;;5072134;27;82602;-53
2022/12/22 06:48:37;;;;;;;1.17;0.90;;;;;;;;;;5082312;27;82877;-53
2022/12/22 06:51:05;;;;;;;0.53;0.53;;;;;;;;;;5066535;27;83307;-54
2022/12/22 06:53:34;;;;;;;1.77;1.10;;;;;;;;;;5065415;27;82992;-53
2022/12/22 06:56:02;;;;;;;1.30;0.90;;;;;;;;;;5084054;27;81875;-53
2022/12/22 06:58:32;;;;;;;1.43;0.70;;;;;;;;;;5068616;27;82725;-53
2022/12/22 07:01:00;;;;;;;1.00;0.90;;;;;;;;;;5066089;27;84114;-54
2022/12/22 07:03:28;;;;;;;1.30;1.20;;;;;;;;;;5066376;27;82906;-53
2022/12/22 07:05:57;;;;;;;1.57;1.17;;;;;;;;;;5082667;27;83842;-54
2022/12/22 07:08:25;;;;;;;0.93;0.73;;;;;;;;;;5071390;27;82081;-52
2022/12/22 07:11:00;;;;;;;1.00;0.93;;;;;;;;;;5065202;27;82864;-53
2022/12/22 07:13:28;;;;;;;1.00;1.00;;;;;;;;;;5064916;27;85205;-53
2022/12/22 07:15:58;;;;;;;0.73;0.70;;;;;;;;;;5066533;27;82462;-53
2022/12/22 07:18:29;;;;;;;1.57;0.77;;;;;;;;;;5073988;27;81853;-53
2022/12/22 07:20:57;;;;;;;1.47;0.80;;;;;;;;;;5077769;27;82212;-53
2022/12/22 07:23:26;;;;;;;1.60;0.80;;;;;;;;;;5064246;27;84210;-53
2022/12/22 07:25:54;;;;;;;0.87;0.80;;;;;;;;;;5066951;27;84033;-53
2022/12/22 07:28:23;;;;;;;1.03;0.90;;;;;;;;;;5082410;27;81976;-53
2022/12/22 07:30:51;;;;;;;1.20;0.87;;;;;;;;;;5086033;27;81718;-53
2022/12/22 07:33:21;;;;;;;2.37;0.93;;;;;;;;;;5084536;27;83098;-54
2022/12/22 07:35:49;;;;;;;0.60;0.60;;;;;;;;;;5052437;27;82018;-53
2022/12/22 07:38:17;;;;;;;1.07;0.60;;;;;;;;;;5047411;27;82882;-53
2022/12/22 07:40:46;;;;;;;1.40;0.77;;;;;;;;;;5053726;27;82994;-53
2022/12/22 07:43:19;;;;;;;1.10;0.87;;;;;;;;;;5044776;27;83039;-52
2022/12/22 07:45:48;;;;;;;1.20;1.10;;;;;;;;;;5053624;27;82563;-53
2022/12/22 07:51:04;;;;;;;0.90;0.70;;;;;;;;;;5049581;27;83754;-53
2022/12/22 07:53:32;;;;;;;0.63;0.63;;;;;;;;;;5042544;27;88133;-53
2022/12/22 07:56:02;;;;;;;1.23;0.90;;;;;;;;;;5043500;27;86663;-53
2022/12/22 07:58:31;;;;;;;1.03;0.80;;;;;;;;;;5042420;27;87163;-53
2022/12/22 08:00:59;;;;;;;0.80;0.80;;;;;;;;;;5047020;27;87225;-53
2022/12/22 08:03:28;;;;;;;1.23;0.63;;;;;;;;;;5041019;27;90052;-53
2022/12/22 08:05:56;;;;;;;0.67;0.67;;;;;;;;;;5050895;27;87422;-54
2022/12/22 08:08:26;;;;;;;0.73;0.73;;;;;;;;;;5048692;27;87102;-53
2022/12/22 08:10:54;;;;;;;0.60;0.50;;;;;;;;;;5049924;27;87157;-53
2022/12/22 08:13:22;;;;;;;1.30;0.53;;;;;;;;;;5042816;27;89464;-54
2022/12/22 08:15:51;;;;;;;1.00;0.87;;;;;;;;;;5042467;27;88021;-53
2022/12/22 08:18:20;;;;;;;2.23;0.80;;;;;;;;;;5049263;27;87021;-53
2022/12/22 08:20:51;;;;;;;0.97;0.77;;;;;;;;;;5056828;27;86375;-53
2022/12/22 08:23:20;;;;;;;0.97;0.60;;;;;;;;;;5061859;27;87929;-53
2022/12/22 08:25:49;;;;;;;0.93;0.50;;;;;;;;;;5062606;27;88549;-53
2022/12/22 08:28:18;;;;;;;0.83;0.73;;;;;;;;;;5062139;27;88577;-52
2022/12/22 08:30:47;;;;;;;0.60;0.60;;;;;;;;;;5061868;27;87048;-53
2022/12/22 08:33:15;;;;;;;1.10;0.87;;;;;;;;;;5061792;27;89076;-53
2022/12/22 08:35:43;;;;;;;1.23;0.87;;;;;;;;;;5061473;27;87992;-53
2022/12/22 08:38:12;;;;;;;2.30;1.07;;;;;;;;;;5061745;27;86967;-53
2022/12/22 08:40:40;;;;;;;1.93;0.90;;;;;;;;;;5061568;27;87141;-53
2022/12/22 08:43:10;;;;;;;0.70;0.60;;;;;;;;;;5062020;27;88081;-53
2022/12/22 08:45:39;;;;;;;0.60;0.53;;;;;;;;;;5062009;27;87635;-53
2022/12/22 08:48:07;;;;;;;1.47;1.00;;;;;;;;;;5061896;27;87061;-53
2022/12/22 08:50:35;;;;;;;1.93;0.63;;;;;;;;;;5061932;27;87036;-53
2022/12/22 08:53:04;;;;;;;1.03;0.57;;;;;;;;;;5060976;27;88034;-55
2022/12/22 08:55:32;;;;;;;0.80;0.57;;;;;;;;;;5061378;27;89916;-53
2022/12/22 08:58:00;;;;;;;2.40;1.00;;;;;;;;;;5061842;27;87474;-53
2022/12/22 09:00:30;;;;;;;0.50;0.50;;;;;;;;;;5061474;27;86982;-53
2022/12/22 09:02:59;;;;;;;0.50;0.50;;;;;;;;;;5061958;27;88132;-53
2022/12/22 09:05:27;;;;;;;1.07;0.80;;;;;;;;;;5061068;27;87889;-53
2022/12/22 09:07:56;;;;;;;1.67;0.87;;;;;;;;;;5061832;27;87113;-53
2022/12/22 09:10:24;;;;;;;0.77;0.60;;;;;;;;;;5061735;27;86389;-53
2022/12/22 09:12:53;;;;;;;0.77;0.50;;;;;;;;;;5061379;27;88076;-53
2022/12/22 09:15:21;;;;;;;1.33;0.50;;;;;;;;;;5061295;27;88871;-53
2022/12/22 09:17:51;;;;;;;0.40;0.40;;;;;;;;;;5060682;27;88024;-53
2022/12/22 09:20:19;;;;;;;0.50;0.50;;;;;;;;;;5061653;27;87610;-53
2022/12/22 09:22:48;;;;;;;1.20;0.70;;;;;;;;;;5060795;27;87958;-53
2022/12/22 09:25:17;;;;;;;0.57;0.57;;;;;;;;;;5061325;27;87831;-53
2022/12/22 09:27:45;;;;;;;1.80;0.50;;;;;;;;;;5061441;27;87102;-53
2022/12/22 09:30:14;;;;;;;1.20;0.50;;;;;;;;;;5061098;27;88288;-53
2022/12/22 09:32:42;;;;;;;0.70;0.70;;;;;;;;;;5061256;27;87920;-53
2022/12/22 09:35:12;;;;;;;1.60;0.60;;;;;;;;;;5061555;27;87933;-53
2022/12/22 09:37:41;;;;;;;0.97;0.70;;;;;;;;;;5061459;27;87027;-53
2022/12/22 09:40:10;;;;;;;1.30;0.70;;;;;;;;;;5060928;27;87091;-53
2022/12/22 09:42:38;;;;;;;0.60;0.60;;;;;;;;;;5059930;27;89314;-53
2022/12/22 09:45:10;;;;;;;0.80;0.57;;;;;;;;;;5060116;27;88839;-53
2022/12/22 09:47:45;;;;;;;0.73;0.70;;;;;;;;;;5061296;27;87081;-53
2022/12/22 09:50:17;;;;;;;0.60;0.40;;;;;;;;;;5060589;27;87114;-53
2022/12/22 09:52:47;;;;;;;1.23;1.00;;;;;;;;;;5060257;27;88254;-53
2022/12/22 09:55:16;;;;;;;0.63;0.63;;;;;;;;;;5060912;27;87159;-53
2022/12/22 09:57:45;;;;;;;0.60;0.40;;;;;;;;;;5061011;27;86993;-52
2022/12/22 10:00:14;;;;;;;1.47;0.60;;;;;;;;;;5061388;27;86148;-53
2022/12/22 10:02:44;;;;;;;0.73;0.60;;;;;;;;;;5060644;27;88528;-53
2022/12/22 10:05:19;;;;;;;1.20;0.50;;;;;;;;;;5061099;27;88942;-53
2022/12/22 10:07:48;;;;;;;0.50;0.50;;;;;;;;;;5059976;27;88021;-53
2022/12/22 10:10:18;;;;;;;0.87;0.50;;;;;;;;;;5061665;27;87609;-53
2022/12/22 10:12:46;;;;;;;1.40;0.50;;;;;;;;;;5060647;27;88106;-53
2022/12/22 10:15:15;;;;;;;0.80;0.70;;;;;;;;;;5060816;27;87901;-54
2022/12/22 10:17:50;;;;;;;0.40;0.40;;;;;;;;;;5060839;27;87104;-53
2022/12/22 10:20:28;;;;;;;1.03;0.50;;;;;;;;;;5060385;27;87027;-53
2022/12/22 10:22:58;;;;;;;0.97;0.53;;;;;;;;;;5060213;27;89278;-53
2022/12/22 10:25:28;;;;;;;2.00;0.70;;;;;;;;;;5061020;27;87872;-53
2022/12/22 10:28:17;;;;;;;0.50;0.50;;;;;;;;;;5060688;27;87705;-53
2022/12/22 10:30:45;;;;;;;1.10;0.53;;;;;;;;;;5060412;27;87193;-53
2022/12/22 10:33:14;;;;;;;0.83;0.73;;;;;;;;;;5060060;27;90282;-53
2022/12/22 10:35:45;;;;;;;0.50;0.50;;;;;;;;;;5059894;27;87422;-53
2022/12/22 10:38:14;;;;;;;0.60;0.60;;;;;;;;;;5061087;27;86965;-54
2022/12/22 10:40:49;;;;;;;3.20;0.70;;;;;;;;;;5060322;27;87069;-53
2022/12/22 10:43:24;;;;;;;0.93;0.70;;;;;;;;;;5059807;27;89272;-52
2022/12/22 10:45:52;;;;;;;2.53;0.70;;;;;;;;;;5060136;27;87872;-53
2022/12/22 10:48:26;;;;;;;1.00;0.77;;;;;;;;;;5060463;27;86888;-53
2022/12/22 10:50:55;;;;;;;0.97;0.80;;;;;;;;;;5060813;27;86369;-53
2022/12/22 10:53:37;;;;;;;2.73;0.77;;;;;;;;;;5059503;27;88953;-53
2022/12/22 10:56:07;;;;;;;1.03;0.60;;;;;;;;;;5060011;27;87948;-53
2022/12/22 10:58:46;;;;;;;0.60;0.60;;;;;;;;;;5062888;27;87880;-53
2022/12/22 11:01:15;;;;;;;1.20;0.80;;;;;;;;;;5063750;27;87027;-53
2022/12/22 11:03:43;;;;;;;0.77;0.57;;;;;;;;;;5063548;27;87930;-53
2022/12/22 11:06:13;;;;;;;0.87;0.83;;;;;;;;;;5062664;27;87645;-53
2022/12/22 11:08:41;;;;;;;0.40;0.40;;;;;;;;;;5063910;27;87024;-53
2022/12/22 11:11:31;;;;;;;1.20;0.80;;;;;;;;;;5063993;27;86980;-54
2022/12/22 11:14:02;;;;;;;0.63;0.63;;;;;;;;;;5063319;27;89093;-53
2022/12/22 11:16:33;;;;;;;0.83;0.57;;;;;;;;;;5063399;27;87996;-53
2022/12/22 11:19:08;;;;;;;0.53;0.53;;;;;;;;;;5063044;27;87094;-53
2022/12/22 11:21:39;;;;;;;2.00;1.03;;;;;;;;;;5062619;27;86919;-54
2022/12/22 11:24:11;;;;;;;0.87;0.63;;;;;;;;;;5062514;27;88821;-53
2022/12/22 11:26:41;;;;;;;1.17;0.70;;;;;;;;;;5063366;27;89397;-54
2022/12/22 11:29:16;;;;;;;0.77;0.57;;;;;;;;;;5063549;27;87095;-53
2022/12/22 11:31:53;;;;;;;0.87;0.83;;;;;;;;;;5063412;27;87138;-54
2022/12/22 11:34:24;;;;;;;0.70;0.70;;;;;;;;;;5063184;27;88104;-53
2022/12/22 11:37:02;;;;;;;0.50;0.50;;;;;;;;;;5062777;27;87700;-53
2022/12/22 11:39:38;;;;;;;0.97;0.70;;;;;;;;;;5062879;27;87065;-53
2022/12/22 11:42:08;;;;;;;1.40;0.80;;;;;;;;;;5063433;27;86183;-53
2022/12/22 11:44:40;;;;;;;0.70;0.70;;;;;;;;;;5062744;27;88217;-53
2022/12/22 11:47:13;;;;;;;0.70;0.70;;;;;;;;;;5062572;27;87956;-52
2022/12/22 11:49:56;;;;;;;0.97;0.87;;;;;;;;;;5062587;27;87921;-52
2022/12/22 11:52:53;;;;;;;0.83;0.80;;;;;;;;;;5062599;27;86981;-55
2022/12/22 11:55:22;;;;;;;0.63;0.63;;;;;;;;;;5062348;27;88127;-53
2022/12/22 11:57:54;;;;;;;1.20;1.07;;;;;;;;;;5062141;27;88921;-53
2022/12/22 12:00:22;;;;;;;0.70;0.70;;;;;;;;;;5063005;27;87082;-53
2022/12/22 12:03:28;;;;;;;1.13;0.70;;;;;;;;;;5062551;27;87061;-53
2022/12/22 12:06:11;;;;;;;1.07;0.60;;;;;;;;;;5062364;27;88009;-53
2022/12/22 12:08:43;;;;;;;1.00;0.90;;;;;;;;;;5062316;27;86481;-52
2022/12/22 12:11:16;;;;;;;0.97;0.80;;;;;;;;;;5062665;27;86872;-53
2022/12/22 12:13:48;;;;;;;0.83;0.70;;;;;;;;;;5062932;27;87174;-51
2022/12/22 12:16:18;;;;;;;0.60;0.60;;;;;;;;;;5061714;27;89218;-53
2022/12/22 12:18:54;;;;;;;0.60;0.60;;;;;;;;;;5062053;27;89685;-53
2022/12/22 12:21:26;;;;;;;1.00;0.90;;;;;;;;;;5062320;27;86887;-52
2022/12/22 12:24:00;;;;;;;0.60;0.60;;;;;;;;;;5062184;27;87117;-53
2022/12/22 12:26:29;;;;;;;1.33;1.07;;;;;;;;;;5062085;27;87998;-53
2022/12/22 12:29:01;;;;;;;1.23;0.90;;;;;;;;;;5062061;27;88009;-53
2022/12/22 12:31:30;;;;;;;0.97;0.90;;;;;;;;;;5062440;27;87048;-53
2022/12/22 12:33:59;;;;;;;1.63;1.10;;;;;;;;;;5062684;27;86356;-53
2022/12/22 12:36:29;;;;;;;0.77;0.77;;;;;;;;;;5061740;27;88249;-53
2022/12/22 12:39:00;;;;;;;0.97;0.83;;;;;;;;;;5061935;27;87778;-54
2022/12/22 12:41:39;;;;;;;1.23;0.93;;;;;;;;;;5060744;27;87998;-55
2022/12/22 12:44:10;;;;;;;0.80;0.80;;;;;;;;;;5062141;27;86948;-55
2022/12/22 12:46:45;;;;;;;2.90;1.07;;;;;;;;;;5061817;27;88244;-53
2022/12/22 12:49:32;;;;;;;1.20;0.80;;;;;;;;;;5061557;27;87739;-54
2022/12/22 12:52:01;;;;;;;1.63;1.53;;;;;;;;;;5061316;27;87935;-53
2022/12/22 12:54:40;;;;;;;1.90;1.00;;;;;;;;;;5061381;27;87008;-53
2022/12/22 12:57:13;;;;;;;1.33;1.03;;;;;;;;;;5061678;27;88295;-55
2022/12/22 12:59:47;;;;;;;3.60;1.53;;;;;;;;;;5062174;27;87736;-53
2022/12/22 13:02:34;;;;;;;1.03;1.00;;;;;;;;;;5061318;27;87038;-53
2022/12/22 13:05:21;;;;;;;1.60;1.13;;;;;;;;;;5061802;27;87036;-53
2022/12/22 13:08:19;;;;;;;1.37;1.20;;;;;;;;;;5048220;27;88868;-53
2022/12/22 13:10:50;;;;;;;1.73;1.20;;;;;;;;;;4979051;28;88790;-53
2022/12/22 13:13:38;;;;;;;1.40;1.23;;;;;;;;;;5044221;27;88441;-53
2022/12/22 13:16:24;;;;;;;1.10;1.00;;;;;;;;;;5061539;27;86898;-53
2022/12/22 13:18:57;;;;;;;1.73;1.27;;;;;;;;;;5061537;27;87822;-52
2022/12/22 13:21:26;;;;;;;1.63;1.53;;;;;;;;;;5060238;27;87843;-53
2022/12/22 13:24:16;;;;;;;1.30;0.80;;;;;;;;;;5061245;27;87025;-51
2022/12/22 13:26:56;;;;;;;2.03;1.00;;;;;;;;;;5061611;27;86343;-53
2022/12/22 13:29:26;;;;;;;1.30;1.20;;;;;;;;;;5061454;27;89023;-53
2022/12/22 13:31:56;;;;;;;1.20;1.10;;;;;;;;;;5061288;27;87956;-52
2022/12/22 13:34:32;;;;;;;0.97;0.87;;;;;;;;;;5061176;27;87923;-53
2022/12/22 13:37:02;;;;;;;1.77;1.40;;;;;;;;;;5061334;27;87023;-55
2022/12/22 13:39:32;;;;;;;1.13;1.03;;;;;;;;;;5060658;27;88809;-55
2022/12/22 13:42:01;;;;;;;2.20;1.47;;;;;;;;;;5060901;27;87783;-53
2022/12/22 13:44:30;;;;;;;1.33;1.23;;;;;;;;;;5061185;27;87031;-53
2022/12/22 13:47:02;;;;;;;1.07;0.97;;;;;;;;;;5061102;27;86977;-53
2022/12/22 13:49:30;;;;;;;1.77;1.20;;;;;;;;;;5061033;27;86937;-53
2022/12/22 13:52:20;;;;;;;1.30;1.20;;;;;;;;;;5061106;27;89458;-53
2022/12/22 13:54:48;;;;;;;1.20;1.10;;;;;;;;;;5061078;27;87058;-53
2022/12/22 13:57:19;;;;;;;1.40;1.10;;;;;;;;;;5060745;27;87000;-54
2022/12/22 13:59:48;;;;;;;1.13;1.03;;;;;;;;;;5060102;27;90143;-54
2022/12/22 14:02:17;;;;;;;3.53;1.40;;;;;;;;;;5060327;27;88881;-54
2022/12/22 14:04:46;;;;;;;2.73;1.30;;;;;;;;;;5060598;27;86998;-54
2022/12/22 14:07:20;;;;;;;1.57;1.03;;;;;;;;;;5060393;27;86995;-53
2022/12/22 14:09:48;;;;;;;1.50;1.10;;;;;;;;;;5060660;27;89512;-53
2022/12/22 14:12:19;;;;;;;3.20;1.50;;;;;;;;;;5059248;27;88767;-53
2022/12/22 14:14:48;;;;;;;1.10;1.00;;;;;;;;;;5059806;27;86879;-54
2022/12/22 14:17:19;;;;;;;1.33;1.23;;;;;;;;;;5060984;27;86221;-53
2022/12/22 14:19:48;;;;;;;1.40;1.30;;;;;;;;;;5060204;27;88154;-53
2022/12/22 14:22:18;;;;;;;1.20;1.00;;;;;;;;;;5060226;27;87821;-54
2022/12/22 14:24:46;;;;;;;1.23;1.17;;;;;;;;;;5060178;27;88024;-53
2022/12/22 14:27:17;;;;;;;2.57;1.43;;;;;;;;;;5061259;27;87601;-53
2022/12/22 14:29:47;;;;;;;1.10;1.10;;;;;;;;;;5060569;27;89102;-53
2022/12/22 14:32:30;;;;;;;1.30;1.20;;;;;;;;;;5062833;27;87044;-53
2022/12/22 14:34:59;;;;;;;0.90;0.90;;;;;;;;;;5063748;27;86986;-54
2022/12/22 14:37:27;;;;;;;1.30;1.20;;;;;;;;;;5063863;27;87023;-53
2022/12/22 14:40:00;;;;;;;1.10;1.00;;;;;;;;;;5063994;27;89268;-53
2022/12/22 14:42:29;;;;;;;1.30;1.10;;;;;;;;;;5063683;27;89038;-53
2022/12/22 14:44:59;;;;;;;1.30;1.20;;;;;;;;;;5063866;27;87030;-54
2022/12/22 14:47:27;;;;;;;2.03;1.30;;;;;;;;;;5063780;27;86973;-54
2022/12/22 14:49:56;;;;;;;1.30;1.30;;;;;;;;;;5062811;27;89176;-54
2022/12/22 14:52:27;;;;;;;2.10;1.50;;;;;;;;;;5062995;27;89786;-54
2022/12/22 14:54:55;;;;;;;0.80;0.80;;;;;;;;;;5063917;27;87039;-55
2022/12/22 14:57:29;;;;;;;1.63;1.33;;;;;;;;;;5063652;27;87104;-53
2022/12/22 14:59:59;;;;;;;2.70;1.10;;;;;;;;;;5063952;27;87071;-53
2022/12/22 15:02:29;;;;;;;1.90;1.50;;;;;;;;;;5063130;27;87860;-53
2022/12/22 15:05:24;;;;;;;1.40;1.30;;;;;;;;;;5063256;27;87032;-53
2022/12/22 15:07:52;;;;;;;4.10;1.47;;;;;;;;;;5062851;27;86374;-53
2022/12/22 15:10:39;;;;;;;2.30;1.57;;;;;;;;;;5062980;27;90231;-53
2022/12/22 15:13:08;;;;;;;1.60;1.00;;;;;;;;;;5062618;27;87767;-53
2022/12/22 15:15:38;;;;;;;1.50;1.30;;;;;;;;;;5062743;27;88007;-53
2022/12/22 15:18:06;;;;;;;1.30;1.03;;;;;;;;;;5062938;27;87028;-54
2022/12/22 15:20:34;;;;;;;1.53;1.00;;;;;;;;;;5062685;27;88160;-53
2022/12/22 15:23:10;;;;;;;1.03;1.00;;;;;;;;;;5062276;27;88869;-53
2022/12/22 15:25:38;;;;;;;2.33;1.23;;;;;;;;;;5062708;27;87108;-53
2022/12/22 15:28:07;;;;;;;2.27;1.43;;;;;;;;;;5062857;27;87522;-53
2022/12/22 15:30:35;;;;;;;1.17;1.10;;;;;;;;;;5062089;27;88364;-53
2022/12/22 15:33:05;;;;;;;1.60;1.27;;;;;;;;;;5063222;27;87777;-53
2022/12/22 15:35:34;;;;;;;1.10;1.00;;;;;;;;;;5063061;27;86991;-53
2022/12/22 15:38:02;;;;;;;1.33;1.20;;;;;;;;;;5062826;27;87059;-54
2022/12/22 15:40:30;;;;;;;1.43;1.20;;;;;;;;;;5061989;27;88849;-53
2022/12/22 15:42:59;;;;;;;1.97;1.13;;;;;;;;;;5062315;27;87338;-55
2022/12/22 15:45:27;;;;;;;1.70;0.93;;;;;;;;;;5062921;27;87133;-55
2022/12/22 15:47:55;;;;;;;0.70;0.70;;;;;;;;;;5062558;27;87036;-55
2022/12/22 15:50:26;;;;;;;1.97;1.20;;;;;;;;;;5062441;27;88132;-55
2022/12/22 15:52:58;;;;;;;1.53;1.20;;;;;;;;;;5063132;27;88648;-55
2022/12/22 15:55:26;;;;;;;2.40;1.37;;;;;;;;;;5062967;27;87102;-53
2022/12/22 15:57:56;;;;;;;2.33;0.90;;;;;;;;;;5062774;27;86269;-52
2022/12/22 16:00:24;;;;;;;2.20;1.37;;;;;;;;;;5061972;27;88095;-55
2022/12/22 16:02:53;;;;;;;1.37;1.27;;;;;;;;;;5061833;27;89182;-53
2022/12/22 16:05:21;;;;;;;1.10;1.00;;;;;;;;;;5061720;27;87989;-53
2022/12/22 16:07:51;;;;;;;1.13;0.77;;;;;;;;;;5061790;27;87040;-53
2022/12/22 16:10:21;;;;;;;1.33;1.10;;;;;;;;;;5061990;27;88134;-53
2022/12/22 16:12:53;;;;;;;1.50;1.20;;;;;;;;;;5062336;27;89002;-53
2022/12/22 16:15:21;;;;;;;1.57;1.47;;;;;;;;;;5062520;27;87042;-55
2022/12/22 16:17:51;;;;;;;1.10;1.10;;;;;;;;;;5062382;27;87074;-52
2022/12/22 16:20:20;;;;;;;0.97;0.77;;;;;;;;;;5061806;27;89113;-53
2022/12/22 16:22:48;;;;;;;1.17;1.07;;;;;;;;;;5061372;27;88917;-53
2022/12/22 16:25:20;;;;;;;1.03;1.00;;;;;;;;;;5061517;27;87015;-56
2022/12/22 16:27:49;;;;;;;1.97;1.50;;;;;;;;;;5062282;27;87090;-53
2022/12/22 16:30:18;;;;;;;1.10;1.00;;;;;;;;;;5061291;27;89989;-53
2022/12/22 16:32:46;;;;;;;0.90;0.90;;;;;;;;;;5061386;27;87505;-55
2022/12/22 16:35:15;;;;;;;0.80;0.80;;;;;;;;;;5061916;27;87044;-51
2022/12/22 16:37:44;;;;;;;1.27;1.17;;;;;;;;;;5061966;27;87089;-52
2022/12/22 16:40:12;;;;;;;1.10;1.00;;;;;;;;;;5061593;27;89121;-53
2022/12/22 16:42:43;;;;;;;1.10;0.90;;;;;;;;;;5061820;27;88951;-53
2022/12/22 16:45:29;;;;;;;1.10;0.90;;;;;;;;;;5061516;27;86990;-53
2022/12/22 16:47:58;;;;;;;0.93;0.93;;;;;;;;;;5062126;27;86328;-55
2022/12/22 16:50:31;;;;;;;1.20;1.10;;;;;;;;;;5061755;27;89177;-53
2022/12/22 16:52:59;;;;;;;1.30;1.20;;;;;;;;;;5061149;27;87117;-55
2022/12/22 16:55:28;;;;;;;0.87;0.87;;;;;;;;;;5060445;27;87870;-52
2022/12/22 16:57:57;;;;;;;1.03;1.00;;;;;;;;;;5061299;27;87153;-53
2022/12/22 17:00:27;;;;;;;1.20;1.07;;;;;;;;;;5061058;27;87912;-55
2022/12/22 17:02:55;;;;;;;0.77;0.77;;;;;;;;;;5061841;27;88858;-53
2022/12/22 17:05:26;;;;;;;1.33;1.23;;;;;;;;;;5061991;27;86982;-55
2022/12/22 17:07:55;;;;;;;1.00;1.00;;;;;;;;;;5061823;27;86996;-55
2022/12/22 17:10:23;;;;;;;0.83;0.83;;;;;;;;;;5061350;27;89258;-53
2022/12/22 17:12:52;;;;;;;0.77;0.77;;;;;;;;;;5061768;27;87904;-53
2022/12/22 17:15:22;;;;;;;1.13;0.87;;;;;;;;;;5061585;27;87056;-55
2022/12/22 17:17:51;;;;;;;0.50;0.50;;;;;;;;;;5061815;27;87138;-55
2022/12/22 17:20:20;;;;;;;1.97;1.03;;;;;;;;;;5060572;27;90127;-53
2022/12/22 17:22:49;;;;;;;1.17;0.97;;;;;;;;;;5060798;27;88744;-53
2022/12/22 17:25:18;;;;;;;0.70;0.70;;;;;;;;;;5061285;27;86989;-53
2022/12/22 17:27:46;;;;;;;1.00;0.80;;;;;;;;;;5061053;27;86995;-53
2022/12/22 17:30:16;;;;;;;1.30;1.20;;;;;;;;;;5061026;27;88944;-52
2022/12/22 17:32:47;;;;;;;0.63;0.63;;;;;;;;;;5061084;27;87840;-53
2022/12/22 17:35:15;;;;;;;0.80;0.80;;;;;;;;;;5061368;27;87179;-53
2022/12/22 17:37:44;;;;;;;1.00;0.90;;;;;;;;;;5061027;27;86223;-53
2022/12/22 17:40:13;;;;;;;0.60;0.60;;;;;;;;;;5060804;27;88173;-53
2022/12/22 17:42:42;;;;;;;1.13;0.90;;;;;;;;;;5060002;27;87904;-53
2022/12/22 17:45:13;;;;;;;0.90;0.90;;;;;;;;;;5060417;27;88055;-53
2022/12/22 17:47:41;;;;;;;1.43;1.00;;;;;;;;;;5060768;27;87032;-53
2022/12/22 17:50:12;;;;;;;0.73;0.73;;;;;;;;;;5060321;27;89081;-52
2022/12/22 17:52:40;;;;;;;2.43;1.20;;;;;;;;;;5060422;27;88936;-53
2022/12/22 17:55:17;;;;;;;1.10;0.87;;;;;;;;;;5060924;27;87072;-53
2022/12/22 17:57:45;;;;;;;1.13;1.03;;;;;;;;;;5060711;27;87009;-53
2022/12/22 18:00:16;;;;;;;0.83;0.80;;;;;;;;;;5060604;27;88242;-52
2022/12/22 18:02:45;;;;;;;0.87;0.80;;;;;;;;;;5059960;27;86317;-53
2022/12/22 18:05:16;;;;;;;1.43;0.87;;;;;;;;;;5060496;27;86992;-54
2022/12/22 18:07:44;;;;;;;1.20;0.70;;;;;;;;;;5063854;27;86958;-52
2022/12/22 18:10:16;;;;;;;0.90;0.73;;;;;;;;;;5063818;27;90296;-54
2022/12/22 18:12:45;;;;;;;0.63;0.63;;;;;;;;;;5063466;27;89959;-53
2022/12/22 18:15:15;;;;;;;0.90;0.90;;;;;;;;;;5063832;27;87087;-53
2022/12/22 18:17:43;;;;;;;1.00;0.83;;;;;;;;;;5064536;27;87035;-53
2022/12/22 18:20:13;;;;;;;1.27;0.83;;;;;;;;;;5063239;27;89253;-53
2022/12/22 18:22:43;;;;;;;0.70;0.70;;;;;;;;;;5063419;27;87660;-53
2022/12/22 18:25:15;;;;;;;0.50;0.50;;;;;;;;;;5063737;27;87180;-53
2022/12/22 18:27:44;;;;;;;0.93;0.80;;;;;;;;;;5064123;27;86281;-52
2022/12/22 18:30:19;;;;;;;1.37;0.97;;;;;;;;;;5064018;27;89047;-53
2022/12/22 18:32:48;;;;;;;1.00;0.80;;;;;;;;;;5063687;27;88996;-53
2022/12/22 18:35:16;;;;;;;0.83;0.83;;;;;;;;;;5063275;27;88117;-53
2022/12/22 18:37:46;;;;;;;1.23;0.90;;;;;;;;;;5063953;27;87128;-53
2022/12/22 18:40:21;;;;;;;1.20;0.90;;;;;;;;;;5063492;27;89173;-53